sensor_id;sensor_type;location;lat;lon;timestamp;pressure;altitude;pressure_sealevel;temperature;humidity
43814;BME280;29669;55.706;37.656;2023-07-28T00:02:26;98424.63;;;23.11;nan
43814;BME280;29669;55.706;37.656;2023-07-28T00:04:54;98410.00;;;23.18;nan
43814;BME280;29669;55.706;37.656;2023-07-28T00:07:21;98406.03;;;23.21;nan
43814;BME280;29669;55.706;37.656;2023-07-28T00:09:49;98399.72;;;23.17;nan
43814;BME280;29669;55.706;37.656;2023-07-28T00:12:17;98405.28;;;23.15;nan
43814;BME280;29669;55.706;37.656;2023-07-28T00:14:44;98416.16;;;23.14;nan
43814;BME280;29669;55.706;37.656;2023-07-28T00:17:12;98434.69;;;23.14;nan
43814;BME280;29669;55.706;37.656;2023-07-28T00:19:39;98424.13;;;23.09;nan
43814;BME280;29669;55.706;37.656;2023-07-28T00:22:07;98423.06;;;23.10;nan
43814;BME280;29669;55.706;37.656;2023-07-28T00:24:34;98440.78;;;23.09;nan
43814;BME280;29669;55.706;37.656;2023-07-28T00:27:02;98436.59;;;23.08;nan
43814;BME280;29669;55.706;37.656;2023-07-28T00:29:30;98436.59;;;23.03;nan
43814;BME280;29669;55.706;37.656;2023-07-28T00:31:57;98441.66;;;23.00;nan
43814;BME280;29669;55.706;37.656;2023-07-28T00:34:25;98451.47;;;22.99;nan
43814;BME280;29669;55.706;37.656;2023-07-28T00:36:54;98448.59;;;22.91;nan
43814;BME280;29669;55.706;37.656;2023-07-28T00:39:22;98450.22;;;22.87;nan
43814;BME280;29669;55.706;37.656;2023-07-28T00:41:50;98448.13;;;22.84;nan
43814;BME280;29669;55.706;37.656;2023-07-28T00:44:18;98440.72;;;22.81;nan
43814;BME280;29669;55.706;37.656;2023-07-28T00:46:45;98431.25;;;22.75;nan
43814;BME280;29669;55.706;37.656;2023-07-28T00:49:13;98424.13;;;22.70;nan
43814;BME280;29669;55.706;37.656;2023-07-28T00:51:41;98422.28;;;22.66;nan
43814;BME280;29669;55.706;37.656;2023-07-28T00:54:09;98418.59;;;22.62;nan
43814;BME280;29669;55.706;37.656;2023-07-28T00:56:37;98418.34;;;22.58;nan
43814;BME280;29669;55.706;37.656;2023-07-28T00:59:04;98404.34;;;22.53;nan
43814;BME280;29669;55.706;37.656;2023-07-28T01:01:32;98401.16;;;22.51;nan
43814;BME280;29669;55.706;37.656;2023-07-28T01:04:00;98407.03;;;22.48;nan
43814;BME280;29669;55.706;37.656;2023-07-28T01:06:35;98412.84;;;22.44;nan
43814;BME280;29669;55.706;37.656;2023-07-28T01:09:09;98416.03;;;22.41;nan
43814;BME280;29669;55.706;37.656;2023-07-28T01:11:55;98410.25;;;22.34;nan
43814;BME280;29669;55.706;37.656;2023-07-28T01:14:24;98415.03;;;22.32;nan
43814;BME280;29669;55.706;37.656;2023-07-28T01:16:52;98417.16;;;22.30;nan
43814;BME280;29669;55.706;37.656;2023-07-28T01:19:20;98415.06;;;22.27;nan
43814;BME280;29669;55.706;37.656;2023-07-28T01:21:57;98413.47;;;22.26;nan
43814;BME280;29669;55.706;37.656;2023-07-28T01:24:42;98406.59;;;22.25;nan
43814;BME280;29669;55.706;37.656;2023-07-28T01:27:18;98403.97;;;22.25;nan
43814;BME280;29669;55.706;37.656;2023-07-28T01:29:46;98410.81;;;22.26;nan
43814;BME280;29669;55.706;37.656;2023-07-28T01:32:15;98394.44;;;22.24;nan
43814;BME280;29669;55.706;37.656;2023-07-28T01:34:42;98391.25;;;22.27;nan
43814;BME280;29669;55.706;37.656;2023-07-28T01:37:10;98385.94;;;22.32;nan
43814;BME280;29669;55.706;37.656;2023-07-28T01:39:38;98389.06;;;22.39;nan
43814;BME280;29669;55.706;37.656;2023-07-28T01:42:06;98382.19;;;22.43;nan
43814;BME280;29669;55.706;37.656;2023-07-28T01:44:33;98385.34;;;22.45;nan
43814;BME280;29669;55.706;37.656;2023-07-28T01:47:01;98382.69;;;22.45;nan
43814;BME280;29669;55.706;37.656;2023-07-28T01:49:28;98377.94;;;22.48;nan
43814;BME280;29669;55.706;37.656;2023-07-28T01:51:56;98378.69;;;22.53;nan
43814;BME280;29669;55.706;37.656;2023-07-28T01:54:41;98372.06;;;22.56;nan
43814;BME280;29669;55.706;37.656;2023-07-28T01:57:33;98381.56;;;22.62;nan
43814;BME280;29669;55.706;37.656;2023-07-28T02:00:01;98384.19;;;22.67;nan
43814;BME280;29669;55.706;37.656;2023-07-28T02:02:40;98392.38;;;22.70;nan
43814;BME280;29669;55.706;37.656;2023-07-28T02:05:08;98382.59;;;22.71;nan
43814;BME280;29669;55.706;37.656;2023-07-28T02:07:35;98378.34;;;22.75;nan
43814;BME280;29669;55.706;37.656;2023-07-28T02:10:03;98376.69;;;22.79;nan
43814;BME280;29669;55.706;37.656;2023-07-28T02:12:32;98373.25;;;22.83;nan
43814;BME280;29669;55.706;37.656;2023-07-28T02:15:01;98381.69;;;22.85;nan
43814;BME280;29669;55.706;37.656;2023-07-28T02:17:31;98379.84;;;22.86;nan
43814;BME280;29669;55.706;37.656;2023-07-28T02:19:58;98377.19;;;22.86;nan
43814;BME280;29669;55.706;37.656;2023-07-28T02:22:26;98386.16;;;22.90;nan
43814;BME280;29669;55.706;37.656;2023-07-28T02:24:54;98392.75;;;22.92;nan
43814;BME280;29669;55.706;37.656;2023-07-28T02:27:22;98384.28;;;22.90;nan
43814;BME280;29669;55.706;37.656;2023-07-28T02:29:49;98386.69;;;22.92;nan
43814;BME280;29669;55.706;37.656;2023-07-28T02:32:17;98388.31;;;22.88;nan
43814;BME280;29669;55.706;37.656;2023-07-28T02:34:45;98389.88;;;22.89;nan
43814;BME280;29669;55.706;37.656;2023-07-28T02:37:14;98388.25;;;22.93;nan
43814;BME280;29669;55.706;37.656;2023-07-28T02:39:43;98397.75;;;22.99;nan
43814;BME280;29669;55.706;37.656;2023-07-28T02:42:11;98395.63;;;23.01;nan
43814;BME280;29669;55.706;37.656;2023-07-28T02:44:40;98411.44;;;23.06;nan
43814;BME280;29669;55.706;37.656;2023-07-28T02:47:07;98415.69;;;23.07;nan
43814;BME280;29669;55.706;37.656;2023-07-28T02:49:35;98415.69;;;23.07;nan
43814;BME280;29669;55.706;37.656;2023-07-28T02:52:03;98411.50;;;23.01;nan
43814;BME280;29669;55.706;37.656;2023-07-28T02:54:31;98405.13;;;23.02;nan
43814;BME280;29669;55.706;37.656;2023-07-28T02:56:59;98407.22;;;23.05;nan
43814;BME280;29669;55.706;37.656;2023-07-28T02:59:26;98413.03;;;23.07;nan
43814;BME280;29669;55.706;37.656;2023-07-28T03:01:55;98402.63;;;23.15;nan
43814;BME280;29669;55.706;37.656;2023-07-28T03:04:25;98394.66;;;23.20;nan
43814;BME280;29669;55.706;37.656;2023-07-28T03:07:13;98397.25;;;23.30;nan
43814;BME280;29669;55.706;37.656;2023-07-28T03:09:42;98409.38;;;23.37;nan
43814;BME280;29669;55.706;37.656;2023-07-28T03:12:10;98433.16;;;23.42;nan
43814;BME280;29669;55.706;37.656;2023-07-28T03:14:38;98449.56;;;23.44;nan
43814;BME280;29669;55.706;37.656;2023-07-28T03:17:06;98454.28;;;23.52;nan
43814;BME280;29669;55.706;37.656;2023-07-28T03:19:34;98448.69;;;23.53;nan
43814;BME280;29669;55.706;37.656;2023-07-28T03:22:02;98435.91;;;23.60;nan
43814;BME280;29669;55.706;37.656;2023-07-28T03:24:30;98428.97;;;23.69;nan
43814;BME280;29669;55.706;37.656;2023-07-28T03:26:58;98416.38;;;23.80;nan
43814;BME280;29669;55.706;37.656;2023-07-28T03:29:26;98435.63;;;23.90;nan
43814;BME280;29669;55.706;37.656;2023-07-28T03:31:54;98449.84;;;23.99;nan
43814;BME280;29669;55.706;37.656;2023-07-28T03:34:22;98461.75;;;24.02;nan
43814;BME280;29669;55.706;37.656;2023-07-28T03:36:50;98473.09;;;24.07;nan
43814;BME280;29669;55.706;37.656;2023-07-28T03:39:19;98508.16;;;24.04;nan
43814;BME280;29669;55.706;37.656;2023-07-28T03:41:49;98533.66;;;23.95;nan
43814;BME280;29669;55.706;37.656;2023-07-28T03:44:16;98538.59;;;23.73;nan
43814;BME280;29669;55.706;37.656;2023-07-28T03:46:46;98558.63;;;23.51;nan
43814;BME280;29669;55.706;37.656;2023-07-28T03:49:14;98605.34;;;23.26;nan
43814;BME280;29669;55.706;37.656;2023-07-28T03:51:42;98652.03;;;23.07;nan
43814;BME280;29669;55.706;37.656;2023-07-28T03:54:11;98696.53;;;22.90;nan
43814;BME280;29669;55.706;37.656;2023-07-28T03:56:39;98653.19;;;22.76;nan
43814;BME280;29669;55.706;37.656;2023-07-28T03:59:06;98592.63;;;22.55;nan
43814;BME280;29669;55.706;37.656;2023-07-28T04:01:34;98571.53;;;22.34;nan
43814;BME280;29669;55.706;37.656;2023-07-28T04:04:02;98548.28;;;22.21;nan
43814;BME280;29669;55.706;37.656;2023-07-28T04:06:44;98487.50;;;22.11;nan
43814;BME280;29669;55.706;37.656;2023-07-28T04:09:14;98476.41;;;22.09;nan
43814;BME280;29669;55.706;37.656;2023-07-28T04:11:42;98437.84;;;22.03;nan
43814;BME280;29669;55.706;37.656;2023-07-28T04:14:11;98391.88;;;21.99;nan
43814;BME280;29669;55.706;37.656;2023-07-28T04:16:39;98340.38;;;21.92;nan
43814;BME280;29669;55.706;37.656;2023-07-28T04:19:06;98325.63;;;21.86;nan
43814;BME280;29669;55.706;37.656;2023-07-28T04:21:34;98278.34;;;21.79;nan
43814;BME280;29669;55.706;37.656;2023-07-28T04:24:02;98275.72;;;21.74;nan
43814;BME280;29669;55.706;37.656;2023-07-28T04:26:30;98296.34;;;21.72;nan
43814;BME280;29669;55.706;37.656;2023-07-28T04:29:01;98300.53;;;21.73;nan
43814;BME280;29669;55.706;37.656;2023-07-28T04:31:29;98324.56;;;21.77;nan
43814;BME280;29669;55.706;37.656;2023-07-28T04:34:03;98324.81;;;21.75;nan
43814;BME280;29669;55.706;37.656;2023-07-28T04:36:49;98333.56;;;21.81;nan
43814;BME280;29669;55.706;37.656;2023-07-28T04:39:22;98343.31;;;21.85;nan
43814;BME280;29669;55.706;37.656;2023-07-28T04:41:51;98343.53;;;21.94;nan
43814;BME280;29669;55.706;37.656;2023-07-28T04:44:19;98349.59;;;22.04;nan
43814;BME280;29669;55.706;37.656;2023-07-28T04:46:50;98340.56;;;22.15;nan
43814;BME280;29669;55.706;37.656;2023-07-28T04:49:18;98341.03;;;22.22;nan
43814;BME280;29669;55.706;37.656;2023-07-28T04:52:07;98342.56;;;22.38;nan
43814;BME280;29669;55.706;37.656;2023-07-28T04:54:54;98346.72;;;22.50;nan
43814;BME280;29669;55.706;37.656;2023-07-28T04:57:22;98348.78;;;22.63;nan
43814;BME280;29669;55.706;37.656;2023-07-28T04:59:49;98351.31;;;22.78;nan
43814;BME280;29669;55.706;37.656;2023-07-28T05:02:18;98350.09;;;22.99;nan
43814;BME280;29669;55.706;37.656;2023-07-28T05:04:46;98350.38;;;23.26;nan
43814;BME280;29669;55.706;37.656;2023-07-28T05:07:14;98368.69;;;23.56;nan
43814;BME280;29669;55.706;37.656;2023-07-28T05:09:42;98368.28;;;23.91;nan
43814;BME280;29669;55.706;37.656;2023-07-28T05:12:09;98376.63;;;24.27;nan
43814;BME280;29669;55.706;37.656;2023-07-28T05:14:43;98374.47;;;24.53;nan
43814;BME280;29669;55.706;37.656;2023-07-28T05:17:16;98375.50;;;24.75;nan
43814;BME280;29669;55.706;37.656;2023-07-28T05:20:03;98389.44;;;24.99;nan
43814;BME280;29669;55.706;37.656;2023-07-28T05:22:48;98388.63;;;25.17;nan
43814;BME280;29669;55.706;37.656;2023-07-28T05:25:16;98393.47;;;25.29;nan
43814;BME280;29669;55.706;37.656;2023-07-28T05:27:44;98402.16;;;25.35;nan
43814;BME280;29669;55.706;37.656;2023-07-28T05:30:12;98396.53;;;25.36;nan
43814;BME280;29669;55.706;37.656;2023-07-28T05:32:40;98406.91;;;25.38;nan
43814;BME280;29669;55.706;37.656;2023-07-28T05:35:07;98406.81;;;25.43;nan
43814;BME280;29669;55.706;37.656;2023-07-28T05:37:35;98404.66;;;25.45;nan
43814;BME280;29669;55.706;37.656;2023-07-28T05:40:03;98408.81;;;25.51;nan
43814;BME280;29669;55.706;37.656;2023-07-28T05:42:33;98407.78;;;25.79;nan
43814;BME280;29669;55.706;37.656;2023-07-28T05:45:02;98409.28;;;26.12;nan
43814;BME280;29669;55.706;37.656;2023-07-28T05:47:32;98409.88;;;26.36;nan
43814;BME280;29669;55.706;37.656;2023-07-28T05:49:59;98404.47;;;26.28;nan
43814;BME280;29669;55.706;37.656;2023-07-28T05:52:31;98411.44;;;26.24;nan
43814;BME280;29669;55.706;37.656;2023-07-28T05:54:59;98402.59;;;26.28;nan
43814;BME280;29669;55.706;37.656;2023-07-28T05:57:28;98400.50;;;26.39;nan
43814;BME280;29669;55.706;37.656;2023-07-28T05:59:57;98407.78;;;26.47;nan
43814;BME280;29669;55.706;37.656;2023-07-28T06:02:25;98410.56;;;26.42;nan
43814;BME280;29669;55.706;37.656;2023-07-28T06:04:55;98409.16;;;26.31;nan
43814;BME280;29669;55.706;37.656;2023-07-28T06:07:23;98412.13;;;26.43;nan
43814;BME280;29669;55.706;37.656;2023-07-28T06:09:51;98422.13;;;26.59;nan
43814;BME280;29669;55.706;37.656;2023-07-28T06:12:18;98436.44;;;26.63;nan
43814;BME280;29669;55.706;37.656;2023-07-28T06:14:46;98431.03;;;26.55;nan
43814;BME280;29669;55.706;37.656;2023-07-28T06:17:17;98425.09;;;26.58;nan
43814;BME280;29669;55.706;37.656;2023-07-28T06:19:45;98402.31;;;26.65;nan
43814;BME280;29669;55.706;37.656;2023-07-28T06:22:13;98393.13;;;26.85;nan
43814;BME280;29669;55.706;37.656;2023-07-28T06:24:43;98392.75;;;27.22;nan
43814;BME280;29669;55.706;37.656;2023-07-28T06:27:14;98395.03;;;27.59;nan
43814;BME280;29669;55.706;37.656;2023-07-28T06:29:42;98406.72;;;28.03;nan
43814;BME280;29669;55.706;37.656;2023-07-28T06:32:09;98416.97;;;28.18;nan
43814;BME280;29669;55.706;37.656;2023-07-28T06:34:37;98431.88;;;28.19;nan
43814;BME280;29669;55.706;37.656;2023-07-28T06:37:05;98460.19;;;27.98;nan
43814;BME280;29669;55.706;37.656;2023-07-28T06:39:33;98484.28;;;27.62;nan
43814;BME280;29669;55.706;37.656;2023-07-28T06:42:01;98533.47;;;27.20;nan
43814;BME280;29669;55.706;37.656;2023-07-28T06:44:29;98559.50;;;26.74;nan
43814;BME280;29669;55.706;37.656;2023-07-28T06:46:57;98595.81;;;26.24;nan
43814;BME280;29669;55.706;37.656;2023-07-28T06:49:25;98654.72;;;25.80;nan
43814;BME280;29669;55.706;37.656;2023-07-28T06:51:53;98655.25;;;25.40;nan
43814;BME280;29669;55.706;37.656;2023-07-28T06:54:20;98687.59;;;25.00;nan
43814;BME280;29669;55.706;37.656;2023-07-28T06:56:48;98642.97;;;24.50;nan
43814;BME280;29669;55.706;37.656;2023-07-28T06:59:16;98569.53;;;24.16;nan
43814;BME280;29669;55.706;37.656;2023-07-28T07:01:48;98558.09;;;23.87;nan
43814;BME280;29669;55.706;37.656;2023-07-28T07:04:18;98545.53;;;23.69;nan
43814;BME280;29669;55.706;37.656;2023-07-28T07:06:46;98514.91;;;23.53;nan
43814;BME280;29669;55.706;37.656;2023-07-28T07:09:14;98505.94;;;23.49;nan
43814;BME280;29669;55.706;37.656;2023-07-28T07:11:42;98486.94;;;23.42;nan
43814;BME280;29669;55.706;37.656;2023-07-28T07:14:10;98498.56;;;23.41;nan
43814;BME280;29669;55.706;37.656;2023-07-28T07:16:38;98501.75;;;23.43;nan
43814;BME280;29669;55.706;37.656;2023-07-28T07:19:09;98507.47;;;23.55;nan
43814;BME280;29669;55.706;37.656;2023-07-28T07:21:37;98491.81;;;23.64;nan
43814;BME280;29669;55.706;37.656;2023-07-28T07:24:05;98489.28;;;23.77;nan
43814;BME280;29669;55.706;37.656;2023-07-28T07:26:36;98492.53;;;23.98;nan
43814;BME280;29669;55.706;37.656;2023-07-28T07:29:06;98472.22;;;24.17;nan
43814;BME280;29669;55.706;37.656;2023-07-28T07:31:41;98467.03;;;24.31;nan
43814;BME280;29669;55.706;37.656;2023-07-28T07:34:09;98475.50;;;24.33;nan
43814;BME280;29669;55.706;37.656;2023-07-28T07:36:37;98479.78;;;24.28;nan
43814;BME280;29669;55.706;37.656;2023-07-28T07:39:20;98511.38;;;24.25;nan
43814;BME280;29669;55.706;37.656;2023-07-28T07:42:14;98481.59;;;24.33;nan
43814;BME280;29669;55.706;37.656;2023-07-28T07:45:15;98474.09;;;24.59;nan
43814;BME280;29669;55.706;37.656;2023-07-28T07:48:08;98493.03;;;24.94;nan
43814;BME280;29669;55.706;37.656;2023-07-28T07:50:51;98491.97;;;25.14;nan
43814;BME280;29669;55.706;37.656;2023-07-28T07:53:19;98497.06;;;25.29;nan
43814;BME280;29669;55.706;37.656;2023-07-28T07:56:07;98495.00;;;25.45;nan
43814;BME280;29669;55.706;37.656;2023-07-28T07:58:44;98481.06;;;25.66;nan
43814;BME280;29669;55.706;37.656;2023-07-28T08:01:22;98475.72;;;25.98;nan
43814;BME280;29669;55.706;37.656;2023-07-28T08:03:53;98473.03;;;26.31;nan
43814;BME280;29669;55.706;37.656;2023-07-28T08:06:28;98495.38;;;26.84;nan
43814;BME280;29669;55.706;37.656;2023-07-28T08:09:20;98498.97;;;27.51;nan
43814;BME280;29669;55.706;37.656;2023-07-28T08:12:06;98492.09;;;28.03;nan
43814;BME280;29669;55.706;37.656;2023-07-28T08:15:21;98501.88;;;28.16;nan
43814;BME280;29669;55.706;37.656;2023-07-28T08:18:13;98496.59;;;28.33;nan
43814;BME280;29669;55.706;37.656;2023-07-28T08:20:59;98497.75;;;28.49;nan
43814;BME280;29669;55.706;37.656;2023-07-28T08:23:50;98501.78;;;28.38;nan
43814;BME280;29669;55.706;37.656;2023-07-28T08:26:30;98505.09;;;28.35;nan
43814;BME280;29669;55.706;37.656;2023-07-28T08:29:07;98506.81;;;28.31;nan
43814;BME280;29669;55.706;37.656;2023-07-28T08:32:04;98517.72;;;28.12;nan
43814;BME280;29669;55.706;37.656;2023-07-28T08:34:36;98523.53;;;27.92;nan
43814;BME280;29669;55.706;37.656;2023-07-28T08:37:07;98528.94;;;27.78;nan
43814;BME280;29669;55.706;37.656;2023-07-28T08:39:35;98518.75;;;27.80;nan
43814;BME280;29669;55.706;37.656;2023-07-28T08:42:06;98523.84;;;27.90;nan
43814;BME280;29669;55.706;37.656;2023-07-28T08:45:09;98516.91;;;28.12;nan
43814;BME280;29669;55.706;37.656;2023-07-28T08:48:20;98515.00;;;28.43;nan
43814;BME280;29669;55.706;37.656;2023-07-28T08:50:54;98502.56;;;28.77;nan
43814;BME280;29669;55.706;37.656;2023-07-28T08:53:44;98516.94;;;29.24;nan
43814;BME280;29669;55.706;37.656;2023-07-28T08:57:08;98534.84;;;29.66;nan
43814;BME280;29669;55.706;37.656;2023-07-28T09:00:12;98532.78;;;29.98;nan
43814;BME280;29669;55.706;37.656;2023-07-28T09:03:44;98537.22;;;30.40;nan
43814;BME280;29669;55.706;37.656;2023-07-28T09:11:01;98544.38;;;30.10;nan
43814;BME280;29669;55.706;37.656;2023-07-28T09:13:39;98546.00;;;29.94;nan
43814;BME280;29669;55.706;37.656;2023-07-28T09:17:12;98551.38;;;29.86;nan
43814;BME280;29669;55.706;37.656;2023-07-28T09:20:24;98554.22;;;29.38;nan
43814;BME280;29669;55.706;37.656;2023-07-28T09:26:17;98580.59;;;28.66;nan
43814;BME280;29669;55.706;37.656;2023-07-28T09:28:59;98587.53;;;28.36;nan
43814;BME280;29669;55.706;37.656;2023-07-28T09:31:48;98599.25;;;28.27;nan
43814;BME280;29669;55.706;37.656;2023-07-28T09:34:30;98622.91;;;28.20;nan
43814;BME280;29669;55.706;37.656;2023-07-28T09:37:12;98641.09;;;27.96;nan
43814;BME280;29669;55.706;37.656;2023-07-28T09:39:55;98656.50;;;27.63;nan
43814;BME280;29669;55.706;37.656;2023-07-28T09:42:41;98636.19;;;27.26;nan
43814;BME280;29669;55.706;37.656;2023-07-28T09:45:10;98623.13;;;27.03;nan
43814;BME280;29669;55.706;37.656;2023-07-28T09:47:56;98639.97;;;26.84;nan
43814;BME280;29669;55.706;37.656;2023-07-28T09:50:52;98632.41;;;26.59;nan
43814;BME280;29669;55.706;37.656;2023-07-28T09:53:43;98624.44;;;26.46;nan
43814;BME280;29669;55.706;37.656;2023-07-28T09:56:16;98618.28;;;26.32;nan
43814;BME280;29669;55.706;37.656;2023-07-28T09:58:51;98603.59;;;26.21;nan
43814;BME280;29669;55.706;37.656;2023-07-28T10:06:41;98631.69;;;26.27;nan
43814;BME280;29669;55.706;37.656;2023-07-28T10:09:10;98629.03;;;26.27;nan
43814;BME280;29669;55.706;37.656;2023-07-28T10:11:39;98615.13;;;26.30;nan
43814;BME280;29669;55.706;37.656;2023-07-28T10:14:07;98629.13;;;26.35;nan
43814;BME280;29669;55.706;37.656;2023-07-28T10:16:39;98642.13;;;26.37;nan
43814;BME280;29669;55.706;37.656;2023-07-28T10:19:09;98626.13;;;26.23;nan
43814;BME280;29669;55.706;37.656;2023-07-28T10:21:40;98614.50;;;26.00;nan
43814;BME280;29669;55.706;37.656;2023-07-28T10:24:09;98620.50;;;25.92;nan
43814;BME280;29669;55.706;37.656;2023-07-28T10:26:40;98629.13;;;25.84;nan
43814;BME280;29669;55.706;37.656;2023-07-28T10:29:13;98620.25;;;25.75;nan
43814;BME280;29669;55.706;37.656;2023-07-28T10:31:50;98614.84;;;25.62;nan
43814;BME280;29669;55.706;37.656;2023-07-28T10:34:18;98593.72;;;25.52;nan
43814;BME280;29669;55.706;37.656;2023-07-28T10:36:46;98572.25;;;25.48;nan
43814;BME280;29669;55.706;37.656;2023-07-28T10:39:17;98553.66;;;25.48;nan
43814;BME280;29669;55.706;37.656;2023-07-28T10:44:28;98545.97;;;25.65;nan
43814;BME280;29669;55.706;37.656;2023-07-28T10:46:56;98532.94;;;25.82;nan
43814;BME280;29669;55.706;37.656;2023-07-28T10:49:25;98528.28;;;26.06;nan
43814;BME280;29669;55.706;37.656;2023-07-28T10:51:53;98540.44;;;26.26;nan
43814;BME280;29669;55.706;37.656;2023-07-28T10:54:21;98542.13;;;26.36;nan
43814;BME280;29669;55.706;37.656;2023-07-28T10:56:49;98524.88;;;26.47;nan
43814;BME280;29669;55.706;37.656;2023-07-28T10:59:17;98544.19;;;26.52;nan
43814;BME280;29669;55.706;37.656;2023-07-28T11:01:44;98547.16;;;26.51;nan
43814;BME280;29669;55.706;37.656;2023-07-28T11:04:21;98536.63;;;26.73;nan
43814;BME280;29669;55.706;37.656;2023-07-28T11:06:51;98511.63;;;26.96;nan
43814;BME280;29669;55.706;37.656;2023-07-28T11:09:22;98492.03;;;27.14;nan
43814;BME280;29669;55.706;37.656;2023-07-28T11:11:51;98489.69;;;27.48;nan
43814;BME280;29669;55.706;37.656;2023-07-28T11:14:19;98523.31;;;27.80;nan
43814;BME280;29669;55.706;37.656;2023-07-28T11:16:49;98539.00;;;28.04;nan
43814;BME280;29669;55.706;37.656;2023-07-28T11:19:17;98512.13;;;28.31;nan
43814;BME280;29669;55.706;37.656;2023-07-28T11:21:52;98527.34;;;28.30;nan
43814;BME280;29669;55.706;37.656;2023-07-28T11:24:21;98574.34;;;27.87;nan
43814;BME280;29669;55.706;37.656;2023-07-28T11:26:49;98591.69;;;27.40;nan
43814;BME280;29669;55.706;37.656;2023-07-28T11:29:18;98609.88;;;26.97;nan
43814;BME280;29669;55.706;37.656;2023-07-28T11:31:48;98634.50;;;26.62;nan
43814;BME280;29669;55.706;37.656;2023-07-28T11:34:17;98629.72;;;26.32;nan
43814;BME280;29669;55.706;37.656;2023-07-28T11:36:44;98612.09;;;26.04;nan
43814;BME280;29669;55.706;37.656;2023-07-28T11:39:12;98618.84;;;25.78;nan
43814;BME280;29669;55.706;37.656;2023-07-28T11:41:41;98624.34;;;25.68;nan
43814;BME280;29669;55.706;37.656;2023-07-28T11:44:09;98612.19;;;25.62;nan
43814;BME280;29669;55.706;37.656;2023-07-28T11:46:41;98604.84;;;25.72;nan
43814;BME280;29669;55.706;37.656;2023-07-28T11:49:17;98602.41;;;25.94;nan
43814;BME280;29669;55.706;37.656;2023-07-28T11:51:52;98616.03;;;26.06;nan
43814;BME280;29669;55.706;37.656;2023-07-28T11:54:22;98625.44;;;26.18;nan
43814;BME280;29669;55.706;37.656;2023-07-28T11:56:55;98630.72;;;26.36;nan
43814;BME280;29669;55.706;37.656;2023-07-28T11:59:23;98645.44;;;26.61;nan
43814;BME280;29669;55.706;37.656;2023-07-28T12:01:52;98642.44;;;26.81;nan
43814;BME280;29669;55.706;37.656;2023-07-28T12:04:24;98646.19;;;27.07;nan
43814;BME280;29669;55.706;37.656;2023-07-28T12:09:31;98660.56;;;27.47;nan
43814;BME280;29669;55.706;37.656;2023-07-28T12:11:58;98665.28;;;27.63;nan
43814;BME280;29669;55.706;37.656;2023-07-28T12:14:33;98667.09;;;27.76;nan
43814;BME280;29669;55.706;37.656;2023-07-28T12:17:14;98678.34;;;27.87;nan
43814;BME280;29669;55.706;37.656;2023-07-28T12:20:04;98683.00;;;27.81;nan
43814;BME280;29669;55.706;37.656;2023-07-28T12:22:38;98686.34;;;27.87;nan
43814;BME280;29669;55.706;37.656;2023-07-28T12:25:06;98701.03;;;28.12;nan
43814;BME280;29669;55.706;37.656;2023-07-28T12:27:35;98694.19;;;28.19;nan
43814;BME280;29669;55.706;37.656;2023-07-28T12:30:03;98702.13;;;28.33;nan
43814;BME280;29669;55.706;37.656;2023-07-28T12:32:32;98703.41;;;28.57;nan
43814;BME280;29669;55.706;37.656;2023-07-28T12:35:03;98700.47;;;28.67;nan
43814;BME280;29669;55.706;37.656;2023-07-28T12:37:33;98705.03;;;28.67;nan
43814;BME280;29669;55.706;37.656;2023-07-28T12:40:05;98700.22;;;28.33;nan
43814;BME280;29669;55.706;37.656;2023-07-28T12:42:33;98712.69;;;27.66;nan
43814;BME280;29669;55.706;37.656;2023-07-28T12:45:22;98716.03;;;26.90;nan
43814;BME280;29669;55.706;37.656;2023-07-28T12:47:53;98722.66;;;26.42;nan
43814;BME280;29669;55.706;37.656;2023-07-28T12:50:24;98724.47;;;25.91;nan
43814;BME280;29669;55.706;37.656;2023-07-28T12:52:51;98725.72;;;25.33;nan
43814;BME280;29669;55.706;37.656;2023-07-28T12:55:22;98725.97;;;24.84;nan
43814;BME280;29669;55.706;37.656;2023-07-28T12:57:50;98731.72;;;24.34;nan
43814;BME280;29669;55.706;37.656;2023-07-28T13:00:17;98739.75;;;23.65;nan
43814;BME280;29669;55.706;37.656;2023-07-28T13:03:05;98748.91;;;23.03;nan
43814;BME280;29669;55.706;37.656;2023-07-28T13:05:33;98749.47;;;22.50;nan
43814;BME280;29669;55.706;37.656;2023-07-28T13:08:01;98761.31;;;22.12;nan
43814;BME280;29669;55.706;37.656;2023-07-28T13:10:31;98751.72;;;21.81;nan
43814;BME280;29669;55.706;37.656;2023-07-28T13:13:19;98738.72;;;21.65;nan
43814;BME280;29669;55.706;37.656;2023-07-28T13:15:48;98746.38;;;21.61;nan
43814;BME280;29669;55.706;37.656;2023-07-28T13:18:16;98747.94;;;21.62;nan
43814;BME280;29669;55.706;37.656;2023-07-28T13:20:43;98750.03;;;21.65;nan
43814;BME280;29669;55.706;37.656;2023-07-28T13:23:11;98734.50;;;21.69;nan
43814;BME280;29669;55.706;37.656;2023-07-28T13:25:38;98740.28;;;21.66;nan
43814;BME280;29669;55.706;37.656;2023-07-28T13:28:06;98736.03;;;21.60;nan
43814;BME280;29669;55.706;37.656;2023-07-28T13:30:37;98744.22;;;21.53;nan
43814;BME280;29669;55.706;37.656;2023-07-28T13:33:04;98746.44;;;21.24;nan
43814;BME280;29669;55.706;37.656;2023-07-28T13:35:38;98751.22;;;20.91;nan
43814;BME280;29669;55.706;37.656;2023-07-28T13:38:08;98747.41;;;20.72;nan
43814;BME280;29669;55.706;37.656;2023-07-28T13:40:36;98737.19;;;20.48;nan
43814;BME280;29669;55.706;37.656;2023-07-28T13:43:04;98731.25;;;20.31;nan
43814;BME280;29669;55.706;37.656;2023-07-28T13:45:33;98733.03;;;20.26;nan
43814;BME280;29669;55.706;37.656;2023-07-28T13:48:01;98716.13;;;20.22;nan
43814;BME280;29669;55.706;37.656;2023-07-28T13:50:28;98683.16;;;20.19;nan
43814;BME280;29669;55.706;37.656;2023-07-28T13:52:59;98662.09;;;20.19;nan
43814;BME280;29669;55.706;37.656;2023-07-28T13:55:46;98665.66;;;20.08;nan
43814;BME280;29669;55.706;37.656;2023-07-28T13:58:24;98672.81;;;19.86;nan